Time;durP1;ratioP1;P1;durP2;ratioP2;P2;SDS_P1;SDS_P2;PMS_P1;PMS_P2;Temp;Humidity;BMP_temperature;BMP_pressure;BME280_temperature;BME280_humidity;BME280_pressure;Samples;Min_cycle;Max_cycle;Signal;HPM_P1;HPM_P2
2021/03/16 00:02:20;;;;;;;7.60;6.83;;;2.70;99.90;;;;;;5094679;28;20202;-50
2021/03/16 00:04:46;;;;;;;8.33;7.17;;;2.70;99.90;;;;;;5093068;28;20232;-48
2021/03/16 00:07:11;;;;;;;7.60;6.83;;;2.80;99.90;;;;;;5095306;28;20177;-51
2021/03/16 00:09:37;;;;;;;7.23;6.47;;;2.80;99.90;;;;;;5083593;28;20194;-51
2021/03/16 00:12:03;;;;;;;10.83;6.93;;;2.80;99.90;;;;;;5073254;28;20182;-50
2021/03/16 00:14:28;;;;;;;7.00;6.27;;;2.90;99.90;;;;;;5074846;28;20186;-49
2021/03/16 00:16:54;;;;;;;7.13;6.33;;;2.90;99.90;;;;;;5073296;28;20938;-54
2021/03/16 00:19:20;;;;;;;7.33;6.30;;;2.90;99.90;;;;;;5080217;28;20545;-48
2021/03/16 00:21:46;;;;;;;8.40;7.23;;;3.00;99.90;;;;;;5094146;28;20185;-48
2021/03/16 00:24:12;;;;;;;7.17;6.47;;;3.00;99.90;;;;;;5092202;28;20412;-53
2021/03/16 00:26:37;;;;;;;7.57;6.73;;;3.10;99.90;;;;;;5093386;28;20192;-51
2021/03/16 00:29:03;;;;;;;7.43;6.70;;;3.10;99.90;;;;;;5086050;28;20638;-48
2021/03/16 00:31:29;;;;;;;7.37;5.70;;;3.20;99.90;;;;;;5072563;28;20175;-57
2021/03/16 00:33:54;;;;;;;6.50;5.83;;;3.20;99.90;;;;;;5089766;28;20509;-55
2021/03/16 00:36:20;;;;;;;7.37;6.17;;;3.20;99.90;;;;;;5093656;28;20296;-48
2021/03/16 00:38:45;;;;;;;8.33;6.20;;;3.10;99.90;;;;;;5078706;28;20202;-48
2021/03/16 00:41:11;;;;;;;7.80;6.67;;;3.10;99.90;;;;;;5073505;28;20171;-52
2021/03/16 00:43:36;;;;;;;7.63;6.53;;;3.00;99.90;;;;;;5085860;28;20182;-51
2021/03/16 00:46:02;;;;;;;7.90;7.07;;;3.00;99.90;;;;;;5089604;28;20198;-53
2021/03/16 00:48:28;;;;;;;9.03;6.50;;;3.00;99.90;;;;;;5089950;28;20205;-53
2021/03/16 00:50:54;;;;;;;8.00;7.20;;;3.00;99.90;;;;;;5073558;28;20179;-57
2021/03/16 00:53:20;;;;;;;8.87;7.97;;;2.90;99.90;;;;;;5073139;28;20175;-51
2021/03/16 00:55:45;;;;;;;7.70;6.90;;;2.90;99.90;;;;;;5090215;28;20208;-51
2021/03/16 00:58:11;;;;;;;8.83;7.80;;;3.00;99.90;;;;;;5091627;28;20204;-49
2021/03/16 01:00:36;;;;;;;9.00;7.20;;;3.00;99.90;;;;;;5077103;28;20553;-54
2021/03/16 01:03:02;;;;;;;8.70;7.80;;;3.00;99.90;;;;;;5072827;28;20170;-55
2021/03/16 01:05:28;;;;;;;9.80;8.37;;;3.00;99.90;;;;;;5084721;28;20213;-48
2021/03/16 01:07:54;;;;;;;9.80;8.80;;;3.00;99.90;;;;;;5091917;28;20227;-50
2021/03/16 01:10:22;;;;;;;10.53;8.83;;;3.00;99.90;;;;;;5053321;28;566345;-56
2021/03/16 01:12:49;;;;;;;10.17;9.07;;;3.00;99.90;;;;;;5073542;28;20205;-54
2021/03/16 01:15:15;;;;;;;11.83;9.50;;;3.10;99.90;;;;;;5093498;28;20766;-48
2021/03/16 01:17:40;;;;;;;10.37;9.00;;;3.00;99.90;;;;;;5094002;28;20201;-50
2021/03/16 01:20:14;;;;;;;11.13;9.43;;;3.00;99.90;;;;;;5075501;28;20217;-51
2021/03/16 01:22:40;;;;;;;12.30;10.17;;;3.00;99.90;;;;;;5073915;28;20253;-50
2021/03/16 01:25:06;;;;;;;10.53;9.43;;;3.10;99.90;;;;;;5090372;28;20285;-52
2021/03/16 01:27:32;;;;;;;11.27;8.90;;;3.00;99.90;;;;;;5094054;28;20170;-51
2021/03/16 01:29:58;;;;;;;12.50;9.83;;;3.00;99.90;;;;;;5077404;28;20183;-55
2021/03/16 01:32:23;;;;;;;12.27;10.60;;;3.00;99.90;;;;;;5076314;28;20181;-47
2021/03/16 01:34:49;;;;;;;11.20;10.00;;;3.00;99.90;;;;;;5093188;28;20190;-48
2021/03/16 01:37:14;;;;;;;11.80;9.97;;;3.10;99.90;;;;;;5092590;28;20514;-55
2021/03/16 01:39:40;;;;;;;10.53;9.43;;;3.10;99.90;;;;;;5073545;28;20564;-53
2021/03/16 01:42:05;;;;;;;10.33;9.23;;;3.10;99.90;;;;;;5073029;28;20257;-52
2021/03/16 01:44:31;;;;;;;13.37;10.10;;;3.20;99.90;;;;;;5091480;28;20182;-48
2021/03/16 01:46:59;;;;;;;10.97;9.70;;;3.30;99.90;;;;;;5093364;28;20250;-56
2021/03/16 01:49:24;;;;;;;10.93;9.13;;;3.30;99.90;;;;;;5092311;28;20177;-47
2021/03/16 01:51:50;;;;;;;10.63;9.37;;;3.30;99.90;;;;;;5093574;28;20641;-49
2021/03/16 01:54:16;;;;;;;12.10;10.00;;;3.30;99.90;;;;;;5076555;28;20295;-51
2021/03/16 01:56:42;;;;;;;10.23;9.13;;;3.20;99.90;;;;;;5072963;28;20260;-48
2021/03/16 01:59:17;;;;;;;11.03;9.83;;;3.20;99.90;;;;;;5087843;28;20217;-52
2021/03/16 02:01:46;;;;;;;11.60;9.67;;;3.20;99.90;;;;;;5093114;28;20166;-49
2021/03/16 02:04:12;;;;;;;11.87;9.53;;;3.20;99.90;;;;;;5091789;28;20240;-57
2021/03/16 02:07:07;;;;;;;11.40;9.97;;;3.20;99.90;;;;;;5094104;28;20198;-52
2021/03/16 02:09:41;;;;;;;11.47;9.53;;;3.20;99.90;;;;;;5077360;28;20645;-49
2021/03/16 02:12:21;;;;;;;11.50;9.40;;;3.20;99.90;;;;;;5076763;28;20217;-48
2021/03/16 02:14:54;;;;;;;10.50;8.90;;;3.20;99.90;;;;;;5091159;28;20564;-52
2021/03/16 02:17:28;;;;;;;11.77;9.63;;;3.30;99.90;;;;;;5096667;28;20561;-58
2021/03/16 02:20:02;;;;;;;11.77;9.50;;;3.30;99.90;;;;;;5077932;28;20174;-51
2021/03/16 02:22:31;;;;;;;13.93;10.20;;;3.20;99.90;;;;;;5076679;28;20472;-48
2021/03/16 02:25:07;;;;;;;14.57;9.97;;;3.20;99.90;;;;;;5095080;28;20198;-53
2021/03/16 02:28:04;;;;;;;11.77;8.80;;;3.10;99.90;;;;;;5097041;28;20170;-52
2021/03/16 02:30:31;;;;;;;11.07;8.57;;;3.20;99.90;;;;;;5076687;28;20178;-49
2021/03/16 02:32:58;;;;;;;11.73;9.07;;;3.20;99.90;;;;;;5093921;28;20174;-54
2021/03/16 02:35:24;;;;;;;10.93;8.97;;;3.30;99.90;;;;;;5078989;28;20198;-48
2021/03/16 02:37:54;;;;;;;11.00;8.53;;;3.20;99.90;;;;;;5076760;28;20631;-48
2021/03/16 02:40:22;;;;;;;10.73;8.73;;;3.20;99.90;;;;;;5086296;28;20178;-48
2021/03/16 02:42:48;;;;;;;11.13;8.90;;;3.20;99.90;;;;;;5075834;28;20177;-50
2021/03/16 02:45:15;;;;;;;12.50;9.70;;;3.10;99.90;;;;;;5093046;28;20280;-52
2021/03/16 02:47:41;;;;;;;11.23;8.70;;;3.20;99.90;;;;;;5096627;28;20166;-50
2021/03/16 02:50:08;;;;;;;9.90;8.70;;;3.20;99.90;;;;;;5079549;28;20175;-55
2021/03/16 02:52:35;;;;;;;11.30;9.53;;;3.20;99.90;;;;;;5075714;28;20174;-49
2021/03/16 02:55:01;;;;;;;11.77;9.10;;;3.20;99.90;;;;;;5091285;28;20209;-57
2021/03/16 02:57:30;;;;;;;10.77;8.73;;;3.20;99.90;;;;;;5096302;28;20169;-48
2021/03/16 03:00:01;;;;;;;15.07;8.80;;;3.20;99.90;;;;;;5081942;28;20187;-48
2021/03/16 03:02:29;;;;;;;10.83;8.23;;;3.20;99.90;;;;;;5076204;28;20178;-50
2021/03/16 03:04:55;;;;;;;10.97;8.20;;;3.20;99.90;;;;;;5089023;28;20197;-53
2021/03/16 03:07:22;;;;;;;12.00;8.77;;;3.20;99.90;;;;;;5096368;28;20182;-57
2021/03/16 03:09:48;;;;;;;11.23;8.00;;;3.20;99.90;;;;;;5083611;28;20259;-48
2021/03/16 03:12:14;;;;;;;11.83;7.40;;;3.20;99.90;;;;;;5075408;28;20413;-58
2021/03/16 03:14:39;;;;;;;12.43;8.07;;;3.30;99.90;;;;;;5085588;28;20189;-51
2021/03/16 03:17:06;;;;;;;11.70;8.03;;;3.30;99.90;;;;;;5095577;28;20183;-48
2021/03/16 03:19:33;;;;;;;11.03;8.17;;;3.20;99.90;;;;;;5086866;28;20551;-51
2021/03/16 03:22:29;;;;;;;10.93;7.33;;;3.30;99.90;;;;;;5090154;28;20256;-48
2021/03/16 03:25:04;;;;;;;13.13;8.20;;;3.20;99.90;;;;;;5095300;28;20204;-53
2021/03/16 03:27:34;;;;;;;14.13;8.33;;;3.20;99.90;;;;;;5095142;28;20204;-50
2021/03/16 03:30:02;;;;;;;12.33;7.47;;;3.30;99.90;;;;;;5075688;28;20186;-48
2021/03/16 03:32:32;;;;;;;10.63;6.70;;;3.30;99.90;;;;;;5074830;28;20261;-50
2021/03/16 03:35:00;;;;;;;10.87;7.23;;;3.30;99.90;;;;;;5094455;28;20549;-48
2021/03/16 03:37:27;;;;;;;14.37;7.30;;;3.40;99.90;;;;;;5095716;28;20174;-53
2021/03/16 03:39:53;;;;;;;14.00;7.53;;;3.50;99.90;;;;;;5076915;28;20203;-52
2021/03/16 03:42:20;;;;;;;10.17;7.20;;;3.40;99.90;;;;;;5074541;28;20593;-55
2021/03/16 03:44:47;;;;;;;9.07;6.43;;;3.50;99.90;;;;;;5091157;28;20178;-57
2021/03/16 03:47:15;;;;;;;11.07;7.40;;;3.50;99.90;;;;;;5095019;28;20181;-54
2021/03/16 03:49:41;;;;;;;10.73;7.20;;;3.50;99.90;;;;;;5079485;28;20276;-51
2021/03/16 03:52:10;;;;;;;11.27;7.07;;;3.50;99.90;;;;;;5077646;28;20549;-48
2021/03/16 03:54:36;;;;;;;10.30;5.90;;;3.50;99.90;;;;;;5074491;28;20247;-53
2021/03/16 03:57:04;;;;;;;12.93;7.03;;;3.50;99.90;;;;;;5080131;28;20181;-49
2021/03/16 03:59:30;;;;;;;9.43;6.70;;;3.60;99.90;;;;;;5094487;28;20271;-52
2021/03/16 04:01:56;;;;;;;11.73;6.30;;;3.70;99.90;;;;;;5090282;28;20174;-49
2021/03/16 04:04:22;;;;;;;10.47;5.63;;;3.60;99.90;;;;;;5074414;28;20179;-50
2021/03/16 04:06:49;;;;;;;11.17;6.53;;;3.50;99.90;;;;;;5077011;28;20191;-50
2021/03/16 04:09:15;;;;;;;7.83;5.10;;;3.50;99.90;;;;;;5095045;28;20178;-48
2021/03/16 04:11:40;;;;;;;8.57;5.47;;;3.40;99.90;;;;;;5092799;28;20500;-53
2021/03/16 04:14:06;;;;;;;8.43;5.50;;;3.40;99.90;;;;;;5074345;28;20699;-55
2021/03/16 04:16:33;;;;;;;9.37;6.53;;;3.40;99.90;;;;;;5074188;28;20202;-57
2021/03/16 04:18:59;;;;;;;7.40;5.43;;;3.40;99.90;;;;;;5093915;28;20205;-49
2021/03/16 04:21:25;;;;;;;11.13;5.80;;;3.40;99.90;;;;;;5094557;28;20166;-51
2021/03/16 04:23:51;;;;;;;9.27;5.50;;;3.40;99.90;;;;;;5076255;28;20175;-47
2021/03/16 04:26:16;;;;;;;11.13;5.50;;;3.40;99.90;;;;;;5074122;28;20660;-54
2021/03/16 04:28:42;;;;;;;11.17;6.07;;;3.40;99.90;;;;;;5088723;28;20177;-48
2021/03/16 04:31:07;;;;;;;9.57;6.50;;;3.40;99.90;;;;;;5094319;28;20177;-52
2021/03/16 04:33:33;;;;;;;9.47;6.83;;;3.40;99.90;;;;;;5074360;28;20269;-49
2021/03/16 04:35:59;;;;;;;9.63;6.03;;;3.40;99.90;;;;;;5074311;28;20194;-58
2021/03/16 04:38:24;;;;;;;8.40;6.33;;;3.40;99.90;;;;;;5091464;28;20193;-52
2021/03/16 04:40:50;;;;;;;11.07;6.60;;;3.40;99.90;;;;;;5093922;28;20193;-53
2021/03/16 04:43:16;;;;;;;9.83;7.17;;;3.30;99.90;;;;;;5074000;28;20522;-54
2021/03/16 04:45:41;;;;;;;9.67;6.47;;;3.30;99.90;;;;;;5073808;28;20277;-48
2021/03/16 04:48:07;;;;;;;8.67;6.73;;;3.30;99.90;;;;;;5091837;28;20178;-51
2021/03/16 04:50:32;;;;;;;10.57;7.43;;;3.30;99.90;;;;;;5094421;28;20206;-51
2021/03/16 04:52:58;;;;;;;12.47;6.63;;;3.20;99.90;;;;;;5087448;28;20261;-50
2021/03/16 04:55:24;;;;;;;9.57;6.67;;;3.20;99.90;;;;;;5086421;28;20665;-51
2021/03/16 04:57:49;;;;;;;9.43;7.00;;;3.30;99.90;;;;;;5073888;28;20251;-49
2021/03/16 05:00:16;;;;;;;8.33;6.90;;;3.30;99.90;;;;;;5078710;28;20196;-50
2021/03/16 05:02:41;;;;;;;11.03;7.00;;;3.40;99.90;;;;;;5094050;28;20166;-52
2021/03/16 05:05:08;;;;;;;10.47;6.80;;;3.40;99.90;;;;;;5089791;28;20190;-52
2021/03/16 05:07:33;;;;;;;15.63;7.20;;;3.40;99.90;;;;;;5074697;28;20170;-57
2021/03/16 05:09:59;;;;;;;11.37;7.00;;;3.40;99.90;;;;;;5093883;28;20182;-57
2021/03/16 05:12:25;;;;;;;10.50;6.73;;;3.30;99.90;;;;;;5093217;28;20525;-52
2021/03/16 05:14:50;;;;;;;8.63;6.90;;;3.30;99.90;;;;;;5073704;28;20202;-51
2021/03/16 05:17:16;;;;;;;10.00;5.73;;;3.20;99.90;;;;;;5074870;28;20340;-52
2021/03/16 05:19:42;;;;;;;9.83;6.50;;;3.20;99.90;;;;;;5083267;28;20198;-48
2021/03/16 05:22:07;;;;;;;8.60;5.70;;;3.20;99.90;;;;;;5081180;28;20257;-52
2021/03/16 05:24:33;;;;;;;12.23;6.17;;;3.20;99.90;;;;;;5082580;28;20169;-57
2021/03/16 05:26:59;;;;;;;10.33;5.60;;;3.20;99.90;;;;;;5084145;28;20195;-54
2021/03/16 05:29:24;;;;;;;8.33;5.20;;;3.10;99.90;;;;;;5084271;28;20204;-49
2021/03/16 05:31:50;;;;;;;8.90;5.10;;;3.10;99.90;;;;;;5082708;28;20205;-51
2021/03/16 05:34:16;;;;;;;8.63;5.17;;;3.10;99.90;;;;;;5082140;28;20178;-53
2021/03/16 05:36:41;;;;;;;11.03;4.47;;;3.20;99.90;;;;;;5082187;28;20198;-53
2021/03/16 05:39:07;;;;;;;10.87;4.83;;;3.20;99.90;;;;;;5064251;28;20203;-51
2021/03/16 05:41:35;;;;;;;7.37;4.50;;;3.20;99.90;;;;;;5082938;28;20236;-50
2021/03/16 05:44:02;;;;;;;6.20;4.30;;;3.20;99.90;;;;;;5081300;28;20174;-53
2021/03/16 05:46:28;;;;;;;6.93;4.17;;;3.30;99.90;;;;;;5075248;28;20194;-48
2021/03/16 05:48:55;;;;;;;7.73;3.90;;;3.30;99.90;;;;;;5080520;28;20198;-54
2021/03/16 05:51:21;;;;;;;6.27;4.40;;;3.30;99.90;;;;;;5084190;28;20185;-48
2021/03/16 05:53:49;;;;;;;5.93;4.00;;;3.30;99.90;;;;;;5085555;28;20261;-55
2021/03/16 05:56:14;;;;;;;6.47;4.27;;;3.20;99.90;;;;;;5084215;28;20208;-49
2021/03/16 05:58:40;;;;;;;5.10;3.37;;;3.30;99.90;;;;;;5076059;28;20565;-48
2021/03/16 06:01:06;;;;;;;7.03;3.70;;;3.20;99.90;;;;;;5076614;28;20224;-57
2021/03/16 06:03:31;;;;;;;5.40;3.50;;;3.20;99.90;;;;;;5082008;28;20189;-48
2021/03/16 06:05:57;;;;;;;7.80;3.40;;;3.20;99.90;;;;;;5106056;28;20227;-53
2021/03/16 06:08:23;;;;;;;7.73;3.20;;;3.20;99.90;;;;;;5118070;28;20173;-48
2021/03/16 06:10:48;;;;;;;5.57;3.27;;;3.30;99.90;;;;;;5113492;28;20242;-53
2021/03/16 06:13:15;;;;;;;5.97;3.67;;;3.30;99.90;;;;;;5093582;28;20296;-48
2021/03/16 06:15:42;;;;;;;7.63;3.50;;;3.30;99.90;;;;;;5085580;28;20202;-48
2021/03/16 06:18:10;;;;;;;6.57;3.30;;;3.30;99.90;;;;;;5075983;28;20217;-49
2021/03/16 06:20:37;;;;;;;5.60;3.30;;;3.30;99.90;;;;;;5077762;28;20190;-48
2021/03/16 06:23:05;;;;;;;4.43;3.27;;;3.40;99.90;;;;;;5083183;28;20188;-48
2021/03/16 06:25:57;;;;;;;5.70;3.20;;;3.40;99.90;;;;;;5094354;28;20193;-48
2021/03/16 06:28:33;;;;;;;7.40;3.53;;;3.50;99.90;;;;;;5076889;28;20240;-52
2021/03/16 06:30:59;;;;;;;9.80;3.37;;;3.40;99.90;;;;;;5077423;28;20634;-50
2021/03/16 06:33:27;;;;;;;6.20;3.50;;;3.40;99.90;;;;;;5091220;28;20223;-55
2021/03/16 06:35:57;;;;;;;4.33;3.33;;;3.50;99.90;;;;;;5076512;28;20202;-52
2021/03/16 06:38:23;;;;;;;7.67;3.40;;;3.60;99.90;;;;;;5090049;28;20651;-52
2021/03/16 06:40:48;;;;;;;7.10;3.13;;;3.60;99.90;;;;;;5075853;28;20316;-52
2021/03/16 06:43:14;;;;;;;6.20;3.47;;;3.60;99.90;;;;;;5078601;28;20434;-55
2021/03/16 06:45:40;;;;;;;4.73;3.13;;;3.60;99.90;;;;;;5094023;28;20194;-54
2021/03/16 06:48:38;;;;;;;6.53;3.57;;;3.70;99.90;;;;;;5084589;28;20174;-53
2021/03/16 06:51:10;;;;;;;5.80;3.30;;;3.70;99.90;;;;;;5021871;28;20196;-54
2021/03/16 06:53:36;;;;;;;7.60;3.97;;;3.70;99.90;;;;;;5018073;28;20198;-57
2021/03/16 06:56:03;;;;;;;6.53;3.40;;;3.80;99.90;;;;;;5010558;28;20200;-59
2021/03/16 06:58:34;;;;;;;6.37;3.43;;;3.80;99.90;;;;;;5012473;28;20530;-55
2021/03/16 07:01:07;;;;;;;5.43;3.60;;;3.80;99.90;;;;;;5029490;28;20187;-54
2021/03/16 07:03:33;;;;;;;6.70;3.80;;;3.70;99.90;;;;;;5052869;28;20179;-59
2021/03/16 07:06:12;;;;;;;5.90;3.37;;;3.70;99.90;;;;;;5036969;28;20197;-54
2021/03/16 07:08:39;;;;;;;7.07;3.57;;;3.80;99.90;;;;;;5053097;28;20206;-56
2021/03/16 07:11:07;;;;;;;6.37;3.90;;;3.70;99.90;;;;;;5052427;28;20709;-55
2021/03/16 07:13:34;;;;;;;7.67;3.87;;;3.70;99.90;;;;;;5053747;28;20195;-55
2021/03/16 07:16:01;;;;;;;4.90;3.40;;;3.60;99.90;;;;;;5031435;28;20246;-51
2021/03/16 07:18:28;;;;;;;5.20;3.30;;;3.60;99.90;;;;;;5032914;28;20204;-52
2021/03/16 07:20:58;;;;;;;5.63;3.80;;;3.60;99.90;;;;;;5039730;28;20241;-55
2021/03/16 07:23:25;;;;;;;8.87;7.93;;;3.70;99.90;;;;;;5034300;28;20168;-57
2021/03/16 07:25:53;;;;;;;10.67;4.93;;;3.70;99.90;;;;;;5026644;28;20301;-58
2021/03/16 07:28:19;;;;;;;25.57;19.23;;;3.80;99.90;;;;;;5105115;28;20188;-54
2021/03/16 07:30:46;;;;;;;10.27;7.67;;;3.80;99.90;;;;;;5094318;28;20268;-60
2021/03/16 07:33:14;;;;;;;8.07;4.87;;;3.80;99.90;;;;;;5112557;28;20536;-60
2021/03/16 07:35:42;;;;;;;8.20;4.70;;;3.80;99.90;;;;;;5108355;28;20217;-58
2021/03/16 07:38:09;;;;;;;7.07;4.67;;;3.90;99.90;;;;;;5072894;28;20278;-59
2021/03/16 07:40:38;;;;;;;4.73;3.03;;;4.00;99.90;;;;;;5077421;28;20178;-54
2021/03/16 07:43:12;;;;;;;3.43;2.90;;;4.00;99.90;;;;;;5073358;28;20210;-59
2021/03/16 07:45:38;;;;;;;6.27;3.63;;;3.90;99.90;;;;;;5074429;28;20194;-53
2021/03/16 07:48:18;;;;;;;4.60;3.03;;;4.00;99.90;;;;;;5074385;28;20170;-56
2021/03/16 07:50:44;;;;;;;7.83;3.80;;;4.00;99.90;;;;;;5074063;28;20189;-56
2021/03/16 07:53:10;;;;;;;6.07;3.50;;;4.10;99.90;;;;;;5075172;28;20197;-52
2021/03/16 07:55:36;;;;;;;8.17;3.63;;;4.10;99.90;;;;;;5074143;28;20225;-54
2021/03/16 07:58:12;;;;;;;6.50;3.23;;;4.10;99.90;;;;;;5074244;28;20201;-54
2021/03/16 08:00:38;;;;;;;5.80;3.20;;;4.10;99.90;;;;;;5074450;28;20175;-51
2021/03/16 08:03:08;;;;;;;8.00;3.70;;;3.90;99.90;;;;;;5072838;28;20708;-55
2021/03/16 08:05:44;;;;;;;10.97;6.30;;;4.00;99.90;;;;;;5081875;28;20282;-57
2021/03/16 08:08:17;;;;;;;7.97;4.60;;;4.10;99.90;;;;;;5094236;28;20637;-56
2021/03/16 08:10:43;;;;;;;11.20;5.63;;;4.10;99.90;;;;;;5093827;28;20213;-58
2021/03/16 08:13:18;;;;;;;6.80;3.80;;;4.10;99.90;;;;;;5093033;28;20206;-51
2021/03/16 08:15:47;;;;;;;6.13;3.43;;;4.20;99.90;;;;;;5093640;28;20193;-60
2021/03/16 08:18:26;;;;;;;9.00;3.53;;;4.20;99.90;;;;;;5095082;28;20221;-57
2021/03/16 08:20:51;;;;;;;7.03;3.83;;;4.30;99.90;;;;;;5093919;28;20618;-57
2021/03/16 08:23:17;;;;;;;7.60;3.50;;;4.30;99.90;;;;;;5094115;28;20257;-53
2021/03/16 08:25:46;;;;;;;6.33;3.17;;;4.30;99.90;;;;;;5094066;28;20255;-54
2021/03/16 08:28:16;;;;;;;5.40;3.10;;;4.40;99.90;;;;;;5094301;28;20185;-56
2021/03/16 08:30:41;;;;;;;5.60;3.03;;;4.40;99.90;;;;;;5093158;28;20194;-57
2021/03/16 08:33:14;;;;;;;5.07;3.20;;;4.40;99.90;;;;;;5093748;28;20174;-59
2021/03/16 08:35:47;;;;;;;6.73;3.20;;;4.50;99.90;;;;;;5092713;28;20282;-58
2021/03/16 08:38:23;;;;;;;7.33;3.00;;;4.50;99.90;;;;;;5092533;28;20734;-52
2021/03/16 08:41:01;;;;;;;7.70;3.40;;;4.60;99.90;;;;;;5073746;28;20282;-55
2021/03/16 08:43:26;;;;;;;6.70;2.77;;;4.60;99.90;;;;;;5073555;28;20266;-55
2021/03/16 08:45:52;;;;;;;5.33;2.70;;;4.70;99.90;;;;;;5072775;28;20297;-59
2021/03/16 08:48:25;;;;;;;5.67;2.40;;;4.60;99.90;;;;;;5073596;28;20189;-58
2021/03/16 08:50:51;;;;;;;4.93;2.40;;;4.50;99.90;;;;;;5073155;28;20175;-53
2021/03/16 08:53:16;;;;;;;3.43;2.27;;;4.50;99.90;;;;;;5078999;28;20259;-53
2021/03/16 08:55:47;;;;;;;6.37;2.50;;;4.60;99.90;;;;;;5084620;28;20696;-55
2021/03/16 08:58:12;;;;;;;5.97;2.63;;;4.60;99.90;;;;;;5082716;28;20217;-55
2021/03/16 09:00:38;;;;;;;6.40;2.80;;;4.60;99.90;;;;;;5085287;28;20533;-52
2021/03/16 09:03:04;;;;;;;4.83;2.43;;;4.60;99.90;;;;;;5081805;28;20166;-52
2021/03/16 09:05:29;;;;;;;6.20;2.50;;;4.70;99.90;;;;;;5081277;28;20201;-58
2021/03/16 09:07:59;;;;;;;6.57;2.70;;;4.70;99.90;;;;;;5082369;28;20185;-52
2021/03/16 09:10:25;;;;;;;3.90;2.10;;;4.80;99.90;;;;;;5081502;28;20182;-52
2021/03/16 09:12:52;;;;;;;3.70;2.50;;;4.80;99.90;;;;;;5080179;28;20185;-54
2021/03/16 09:15:21;;;;;;;5.90;2.40;;;4.90;99.90;;;;;;5083463;28;20293;-53
2021/03/16 09:17:48;;;;;;;4.70;2.40;;;4.80;99.90;;;;;;5081473;28;20174;-52
2021/03/16 09:20:20;;;;;;;5.70;2.70;;;4.90;99.90;;;;;;5086000;28;20181;-53
2021/03/16 09:22:54;;;;;;;3.67;2.43;;;4.90;99.90;;;;;;5087511;28;20630;-54
2021/03/16 09:25:26;;;;;;;4.00;2.60;;;4.90;99.90;;;;;;5086041;28;20254;-57
2021/03/16 09:27:59;;;;;;;3.73;2.30;;;4.80;99.90;;;;;;5088572;28;20177;-59
2021/03/16 09:30:26;;;;;;;5.27;2.77;;;4.70;99.90;;;;;;5089222;28;20169;-55
2021/03/16 09:32:52;;;;;;;5.20;2.70;;;4.70;99.90;;;;;;5088426;28;20178;-55
2021/03/16 09:35:19;;;;;;;4.37;2.80;;;4.70;99.90;;;;;;5087621;28;20548;-59
2021/03/16 09:37:48;;;;;;;4.57;2.43;;;4.70;99.90;;;;;;5088602;28;20637;-59
2021/03/16 09:40:15;;;;;;;5.43;2.43;;;4.80;99.90;;;;;;5087266;28;20166;-58
2021/03/16 09:42:47;;;;;;;5.63;2.50;;;5.00;99.90;;;;;;5085909;28;20507;-56
2021/03/16 09:45:19;;;;;;;3.87;2.47;;;5.20;99.90;;;;;;5085096;28;20688;-54
2021/03/16 09:47:45;;;;;;;6.53;2.97;;;5.30;99.90;;;;;;5088421;28;20193;-56
2021/03/16 09:50:29;;;;;;;6.20;2.73;;;5.60;99.90;;;;;;5086811;28;20163;-60
2021/03/16 09:53:00;;;;;;;7.57;2.47;;;5.90;99.90;;;;;;5086967;28;20171;-57
2021/03/16 09:55:27;;;;;;;5.77;2.10;;;6.20;99.90;;;;;;5085946;28;20189;-54
2021/03/16 09:57:52;;;;;;;4.70;2.00;;;6.80;99.90;;;;;;5087311;28;20574;-57
2021/03/16 10:00:20;;;;;;;5.17;2.30;;;7.80;99.90;;;;;;5090842;27;20710;-54
2021/03/16 10:02:45;;;;;;;4.33;2.20;;;8.50;99.90;;;;;;5088390;28;20165;-57
2021/03/16 10:05:12;;;;;;;4.07;1.93;;;9.30;99.90;;;;;;5087009;28;20601;-58
2021/03/16 10:07:38;;;;;;;4.67;2.03;;;10.10;99.90;;;;;;5086729;28;20158;-57
2021/03/16 10:10:21;;;;;;;3.50;1.70;;;10.80;99.90;;;;;;5086095;28;20210;-53
2021/03/16 10:13:03;;;;;;;3.60;1.60;;;11.40;99.90;;;;;;5084467;28;20223;-55
2021/03/16 10:15:31;;;;;;;3.63;1.70;;;11.60;99.90;;;;;;5090366;28;20205;-57
2021/03/16 10:17:59;;;;;;;4.20;1.80;;;12.20;99.90;;;;;;5087294;28;20176;-59
2021/03/16 10:20:35;;;;;;;2.20;1.53;;;12.00;99.90;;;;;;5097441;28;20177;-53
2021/03/16 10:23:10;;;;;;;2.40;1.60;;;11.50;99.90;;;;;;5086887;28;20170;-55
2021/03/16 10:25:37;;;;;;;2.63;1.23;;;10.30;99.90;;;;;;5088756;28;20273;-56
2021/03/16 10:28:04;;;;;;;3.40;1.40;;;10.00;99.90;;;;;;5085718;28;20174;-59
2021/03/16 10:30:48;;;;;;;2.27;1.60;;;10.20;99.90;;;;;;5090615;28;20163;-57
2021/03/16 10:33:13;;;;;;;3.43;1.53;;;9.50;99.90;;;;;;5090937;28;20162;-57
2021/03/16 10:35:41;;;;;;;3.07;1.50;;;9.80;99.90;;;;;;5088432;28;20186;-59
2021/03/16 10:38:07;;;;;;;3.17;1.57;;;10.70;99.90;;;;;;5085069;28;20527;-56
2021/03/16 10:40:34;;;;;;;3.63;1.60;;;11.80;99.90;;;;;;5086707;28;20174;-53
2021/03/16 10:43:00;;;;;;;4.07;1.70;;;12.50;99.90;;;;;;5085954;28;20638;-54
2021/03/16 10:45:27;;;;;;;3.20;1.80;;;12.20;99.00;;;;;;5099299;28;20197;-56
2021/03/16 10:47:53;;;;;;;4.90;1.83;;;11.80;98.50;;;;;;5085119;28;20177;-61
2021/03/16 10:50:20;;;;;;;2.73;1.47;;;10.80;99.80;;;;;;5085686;28;20249;-54
2021/03/16 10:52:45;;;;;;;3.80;1.70;;;10.00;99.90;;;;;;5087795;28;20254;-60
2021/03/16 10:55:11;;;;;;;4.07;2.10;;;9.60;99.90;;;;;;5087612;28;20210;-55
2021/03/16 10:57:38;;;;;;;5.73;2.20;;;9.20;99.90;;;;;;5096356;28;20243;-56
2021/03/16 11:00:05;;;;;;;2.20;1.70;;;8.90;99.90;;;;;;5090042;28;20252;-56
2021/03/16 11:02:31;;;;;;;6.20;1.93;;;8.60;99.90;;;;;;5095035;28;20174;-57
2021/03/16 11:04:57;;;;;;;4.03;1.53;;;8.30;99.90;;;;;;5092857;28;20239;-56
2021/03/16 11:07:22;;;;;;;3.57;1.57;;;7.70;99.90;;;;;;5111114;28;20173;-52
2021/03/16 11:09:48;;;;;;;6.50;1.70;;;7.40;99.90;;;;;;5098441;27;20207;-52
2021/03/16 11:12:14;;;;;;;4.10;1.50;;;7.10;99.90;;;;;;5095048;28;20174;-55
2021/03/16 11:14:39;;;;;;;2.63;1.20;;;6.80;99.90;;;;;;5096986;28;20182;-56
2021/03/16 11:17:05;;;;;;;4.43;1.67;;;6.80;99.90;;;;;;5106689;28;20208;-53
2021/03/16 11:19:30;;;;;;;5.03;1.90;;;6.70;99.90;;;;;;5090539;28;20204;-56
2021/03/16 11:21:56;;;;;;;2.87;1.60;;;6.50;99.90;;;;;;5094910;28;20169;-55
2021/03/16 11:24:22;;;;;;;4.07;1.83;;;6.60;99.90;;;;;;5090664;28;20178;-53
2021/03/16 11:26:47;;;;;;;4.13;1.67;;;6.70;99.90;;;;;;5094508;28;20225;-58
2021/03/16 11:29:13;;;;;;;4.97;1.73;;;6.70;99.90;;;;;;5077328;28;20174;-59
2021/03/16 11:31:39;;;;;;;5.87;2.73;;;6.80;99.90;;;;;;5078611;28;20174;-57
2021/03/16 11:34:05;;;;;;;5.53;1.90;;;6.80;99.90;;;;;;5088913;28;20276;-56
2021/03/16 11:36:31;;;;;;;14.87;10.90;;;6.90;99.90;;;;;;5091872;28;20277;-59
2021/03/16 11:38:56;;;;;;;3.00;2.07;;;6.70;99.90;;;;;;5094776;28;20711;-56
2021/03/16 11:41:22;;;;;;;2.73;1.80;;;6.70;99.90;;;;;;5093023;28;20530;-55
2021/03/16 11:43:48;;;;;;;5.47;2.43;;;6.50;99.90;;;;;;5093703;28;20521;-59
2021/03/16 11:46:14;;;;;;;3.00;1.73;;;6.60;99.90;;;;;;5085164;28;20243;-51
2021/03/16 11:48:39;;;;;;;3.53;1.57;;;6.60;99.90;;;;;;5083828;28;20178;-52
2021/03/16 11:51:05;;;;;;;4.73;1.83;;;6.50;99.90;;;;;;5084789;28;20641;-60
2021/03/16 11:53:31;;;;;;;2.63;1.37;;;6.40;99.90;;;;;;5084547;28;20240;-54
2021/03/16 11:55:58;;;;;;;4.67;1.50;;;6.40;99.90;;;;;;5083751;28;20194;-58
2021/03/16 11:58:23;;;;;;;2.77;1.40;;;6.40;99.90;;;;;;5084679;28;20262;-59
2021/03/16 12:00:49;;;;;;;4.73;1.60;;;6.40;99.90;;;;;;5094255;28;20174;-57
2021/03/16 12:03:15;;;;;;;2.30;1.37;;;6.40;99.90;;;;;;5094170;28;20161;-53
2021/03/16 12:05:40;;;;;;;3.33;1.70;;;6.40;99.90;;;;;;5108733;28;20671;-56
2021/03/16 12:08:06;;;;;;;5.20;1.57;;;6.40;99.90;;;;;;5113830;28;20173;-57
2021/03/16 12:10:32;;;;;;;2.73;1.67;;;6.50;99.90;;;;;;5113930;28;20189;-58
2021/03/16 12:12:57;;;;;;;3.30;1.37;;;6.60;99.90;;;;;;5113937;28;20176;-55
2021/03/16 12:15:23;;;;;;;3.07;1.50;;;6.80;99.90;;;;;;5114477;28;20659;-58
2021/03/16 12:17:48;;;;;;;4.80;1.50;;;6.90;99.90;;;;;;5104247;28;20166;-60
2021/03/16 12:20:15;;;;;;;3.37;1.50;;;7.20;99.90;;;;;;5094048;28;20180;-60
2021/03/16 12:22:42;;;;;;;3.60;1.57;;;7.70;99.90;;;;;;5093930;28;20201;-58
2021/03/16 12:25:08;;;;;;;4.00;1.67;;;8.10;99.90;;;;;;5094066;28;20190;-59
2021/03/16 12:27:34;;;;;;;3.80;1.63;;;8.60;99.90;;;;;;5094381;28;20166;-59
2021/03/16 12:30:00;;;;;;;3.30;1.33;;;8.90;99.90;;;;;;5094111;28;20180;-57
2021/03/16 12:32:26;;;;;;;3.30;1.60;;;9.10;99.90;;;;;;5093678;28;20182;-53
2021/03/16 12:34:52;;;;;;;3.90;1.53;;;9.00;99.90;;;;;;5094458;28;20209;-58
2021/03/16 12:37:18;;;;;;;4.20;1.40;;;8.90;99.90;;;;;;5094298;28;20216;-61
2021/03/16 12:39:44;;;;;;;2.60;1.40;;;8.60;99.90;;;;;;5093922;28;20198;-58
2021/03/16 12:42:10;;;;;;;1.53;0.80;;;8.30;99.90;;;;;;5094622;28;20195;-56
2021/03/16 12:44:36;;;;;;;2.00;1.13;;;7.80;99.90;;;;;;5094065;28;20165;-58
2021/03/16 12:47:04;;;;;;;2.03;1.00;;;7.20;99.90;;;;;;5094220;28;20173;-59
2021/03/16 12:49:30;;;;;;;2.03;1.00;;;7.00;99.90;;;;;;5093721;28;20253;-51
2021/03/16 12:51:56;;;;;;;1.50;1.23;;;7.00;99.90;;;;;;5093137;28;20170;-58
2021/03/16 12:54:23;;;;;;;3.27;1.10;;;6.90;99.90;;;;;;5093707;28;20320;-55
2021/03/16 12:56:49;;;;;;;2.90;1.27;;;7.00;99.90;;;;;;5094091;28;20194;-56